Terminal Aerodrome Forecast
Issued by NWS Jackson, KY

Home | Current Version | Previous Version | Text Only | Print | Product List | Glossary On
Versions: 1 2 3 4 5 6 7 8 9 10 11 12 13 14 15 16 17 18 19
085
FTUS43 KJKL 191140
TAFJKL
TAF
KJKL 191140Z 1912/2012 VRB03KT P6SM BKN200
     FM192200 VRB03KT P6SM VCSH SCT040 BKN090
     FM200200 00000KT P6SM -SHRA SCT020 OVC040
     FM200700 19004KT 3SM -SHRA BR OVC015=

USA.gov is the U.S. government's official web portal to all federal, state and local government web resources and services.